sensor_id;sensor_type;location;lat;lon;timestamp;temperature;humidity
32187;DHT22;18686;53.084;8.872;2023-10-09T00:00:27;12.80;99.90
32187;DHT22;18686;53.084;8.872;2023-10-09T00:03:17;12.80;99.90
32187;DHT22;18686;53.084;8.872;2023-10-09T00:05:46;12.80;99.90
32187;DHT22;18686;53.084;8.872;2023-10-09T00:08:15;12.90;99.90
32187;DHT22;18686;53.084;8.872;2023-10-09T00:10:49;12.90;99.90
32187;DHT22;18686;53.084;8.872;2023-10-09T00:13:21;12.90;99.90
32187;DHT22;18686;53.084;8.872;2023-10-09T00:15:57;12.90;99.90
32187;DHT22;18686;53.084;8.872;2023-10-09T00:18:28;12.90;99.90
32187;DHT22;18686;53.084;8.872;2023-10-09T00:20:59;13.00;99.90
32187;DHT22;18686;53.084;8.872;2023-10-09T00:23:38;13.00;99.90
32187;DHT22;18686;53.084;8.872;2023-10-09T00:26:06;13.00;99.90
32187;DHT22;18686;53.084;8.872;2023-10-09T00:28:49;13.00;99.90
32187;DHT22;18686;53.084;8.872;2023-10-09T00:31:20;13.00;99.90
32187;DHT22;18686;53.084;8.872;2023-10-09T00:33:57;13.00;99.90
32187;DHT22;18686;53.084;8.872;2023-10-09T00:36:34;13.00;99.90
32187;DHT22;18686;53.084;8.872;2023-10-09T00:39:18;12.90;99.90
32187;DHT22;18686;53.084;8.872;2023-10-09T00:42:00;12.90;99.90
32187;DHT22;18686;53.084;8.872;2023-10-09T00:44:29;12.90;99.90
32187;DHT22;18686;53.084;8.872;2023-10-09T00:47:07;12.80;99.90
32187;DHT22;18686;53.084;8.872;2023-10-09T00:49:52;12.80;99.90
32187;DHT22;18686;53.084;8.872;2023-10-09T00:52:30;12.80;99.90
32187;DHT22;18686;53.084;8.872;2023-10-09T00:55:05;12.80;99.90
32187;DHT22;18686;53.084;8.872;2023-10-09T00:57:43;12.70;99.90
32187;DHT22;18686;53.084;8.872;2023-10-09T01:00:17;12.80;99.90
32187;DHT22;18686;53.084;8.872;2023-10-09T01:03:02;12.70;99.90
32187;DHT22;18686;53.084;8.872;2023-10-09T01:05:48;12.70;99.90
32187;DHT22;18686;53.084;8.872;2023-10-09T01:08:24;12.70;99.90
32187;DHT22;18686;53.084;8.872;2023-10-09T01:10:56;12.70;99.90
32187;DHT22;18686;53.084;8.872;2023-10-09T01:13:26;12.70;99.90
32187;DHT22;18686;53.084;8.872;2023-10-09T01:16:06;12.70;99.90
32187;DHT22;18686;53.084;8.872;2023-10-09T01:18:41;12.60;99.90
32187;DHT22;18686;53.084;8.872;2023-10-09T01:21:11;12.70;99.90
32187;DHT22;18686;53.084;8.872;2023-10-09T01:23:44;12.60;99.90
32187;DHT22;18686;53.084;8.872;2023-10-09T01:26:30;12.50;99.90
32187;DHT22;18686;53.084;8.872;2023-10-09T01:29:06;12.50;99.90
32187;DHT22;18686;53.084;8.872;2023-10-09T01:31:37;12.50;99.90
32187;DHT22;18686;53.084;8.872;2023-10-09T01:34:11;12.50;99.90
32187;DHT22;18686;53.084;8.872;2023-10-09T01:36:41;12.40;99.90
32187;DHT22;18686;53.084;8.872;2023-10-09T01:39:11;12.40;99.90
32187;DHT22;18686;53.084;8.872;2023-10-09T01:41:51;12.40;99.90
32187;DHT22;18686;53.084;8.872;2023-10-09T01:44:26;12.40;99.90
32187;DHT22;18686;53.084;8.872;2023-10-09T01:46:57;12.40;99.90
32187;DHT22;18686;53.084;8.872;2023-10-09T01:49:25;12.30;99.90
32187;DHT22;18686;53.084;8.872;2023-10-09T01:51:59;12.30;99.90
32187;DHT22;18686;53.084;8.872;2023-10-09T01:54:35;12.30;99.90
32187;DHT22;18686;53.084;8.872;2023-10-09T01:57:05;12.30;99.90
32187;DHT22;18686;53.084;8.872;2023-10-09T01:59:38;12.30;99.90
32187;DHT22;18686;53.084;8.872;2023-10-09T02:02:11;12.30;99.90
32187;DHT22;18686;53.084;8.872;2023-10-09T02:04:53;12.30;99.90
32187;DHT22;18686;53.084;8.872;2023-10-09T02:07:31;12.30;99.90
32187;DHT22;18686;53.084;8.872;2023-10-09T02:10:10;12.30;99.90
32187;DHT22;18686;53.084;8.872;2023-10-09T02:12:49;12.30;99.90
32187;DHT22;18686;53.084;8.872;2023-10-09T02:15:21;12.30;99.90
32187;DHT22;18686;53.084;8.872;2023-10-09T02:18:08;12.30;99.90
32187;DHT22;18686;53.084;8.872;2023-10-09T02:20:46;12.30;99.90
32187;DHT22;18686;53.084;8.872;2023-10-09T02:23:28;12.30;99.90
32187;DHT22;18686;53.084;8.872;2023-10-09T02:26:07;12.30;99.90
32187;DHT22;18686;53.084;8.872;2023-10-09T02:28:38;12.30;99.90
32187;DHT22;18686;53.084;8.872;2023-10-09T02:31:11;12.30;99.90
32187;DHT22;18686;53.084;8.872;2023-10-09T02:33:39;12.30;99.90
32187;DHT22;18686;53.084;8.872;2023-10-09T02:36:08;12.30;99.90
32187;DHT22;18686;53.084;8.872;2023-10-09T02:38:40;12.30;99.90
32187;DHT22;18686;53.084;8.872;2023-10-09T02:41:10;12.30;99.90
32187;DHT22;18686;53.084;8.872;2023-10-09T02:43:56;12.30;99.90
32187;DHT22;18686;53.084;8.872;2023-10-09T02:46:37;12.30;99.90
32187;DHT22;18686;53.084;8.872;2023-10-09T02:49:07;12.30;99.90
32187;DHT22;18686;53.084;8.872;2023-10-09T02:51:37;12.30;99.90
32187;DHT22;18686;53.084;8.872;2023-10-09T02:54:09;12.30;99.90
32187;DHT22;18686;53.084;8.872;2023-10-09T02:56:56;12.30;99.90
32187;DHT22;18686;53.084;8.872;2023-10-09T02:59:33;12.30;99.90
32187;DHT22;18686;53.084;8.872;2023-10-09T03:02:01;12.30;99.90
32187;DHT22;18686;53.084;8.872;2023-10-09T03:04:30;12.30;99.90
32187;DHT22;18686;53.084;8.872;2023-10-09T03:06:58;12.30;99.90
32187;DHT22;18686;53.084;8.872;2023-10-09T03:09:27;12.30;99.90
32187;DHT22;18686;53.084;8.872;2023-10-09T03:11:58;12.40;99.90
32187;DHT22;18686;53.084;8.872;2023-10-09T03:14:32;12.40;99.90
32187;DHT22;18686;53.084;8.872;2023-10-09T03:17:02;12.40;99.90
32187;DHT22;18686;53.084;8.872;2023-10-09T03:19:32;12.50;99.90
32187;DHT22;18686;53.084;8.872;2023-10-09T03:22:05;12.50;99.90
32187;DHT22;18686;53.084;8.872;2023-10-09T03:24:37;12.50;99.90
32187;DHT22;18686;53.084;8.872;2023-10-09T03:27:07;12.50;99.90
32187;DHT22;18686;53.084;8.872;2023-10-09T03:29:36;12.50;99.90
32187;DHT22;18686;53.084;8.872;2023-10-09T03:32:05;12.50;99.90
32187;DHT22;18686;53.084;8.872;2023-10-09T03:34:33;12.50;99.90
32187;DHT22;18686;53.084;8.872;2023-10-09T03:37:04;12.60;99.90
32187;DHT22;18686;53.084;8.872;2023-10-09T03:39:33;12.50;99.90
32187;DHT22;18686;53.084;8.872;2023-10-09T03:42:07;12.50;99.90
32187;DHT22;18686;53.084;8.872;2023-10-09T03:44:46;12.50;99.90
32187;DHT22;18686;53.084;8.872;2023-10-09T03:47:19;12.50;99.90
32187;DHT22;18686;53.084;8.872;2023-10-09T03:49:50;12.40;99.90
32187;DHT22;18686;53.084;8.872;2023-10-09T03:52:20;12.40;99.90
32187;DHT22;18686;53.084;8.872;2023-10-09T03:54:53;12.40;99.90
32187;DHT22;18686;53.084;8.872;2023-10-09T03:57:23;12.30;99.90
32187;DHT22;18686;53.084;8.872;2023-10-09T03:59:51;12.30;99.90
32187;DHT22;18686;53.084;8.872;2023-10-09T04:02:22;12.30;99.90
32187;DHT22;18686;53.084;8.872;2023-10-09T04:04:50;12.30;99.90
32187;DHT22;18686;53.084;8.872;2023-10-09T04:07:19;12.30;99.90
32187;DHT22;18686;53.084;8.872;2023-10-09T04:09:48;12.30;99.90
32187;DHT22;18686;53.084;8.872;2023-10-09T04:12:31;12.30;99.90
32187;DHT22;18686;53.084;8.872;2023-10-09T04:15:01;12.30;99.90
32187;DHT22;18686;53.084;8.872;2023-10-09T04:17:32;12.20;99.90
32187;DHT22;18686;53.084;8.872;2023-10-09T04:20:02;12.20;99.90
32187;DHT22;18686;53.084;8.872;2023-10-09T04:23:09;12.20;99.90
32187;DHT22;18686;53.084;8.872;2023-10-09T04:25:42;12.20;99.90
32187;DHT22;18686;53.084;8.872;2023-10-09T04:28:13;12.20;99.90
32187;DHT22;18686;53.084;8.872;2023-10-09T04:30:47;12.30;99.90
32187;DHT22;18686;53.084;8.872;2023-10-09T04:33:21;12.30;99.90
32187;DHT22;18686;53.084;8.872;2023-10-09T04:36:01;12.30;99.90
32187;DHT22;18686;53.084;8.872;2023-10-09T04:38:52;12.30;99.90
32187;DHT22;18686;53.084;8.872;2023-10-09T04:41:42;12.30;99.90
32187;DHT22;18686;53.084;8.872;2023-10-09T04:44:41;12.30;99.90
32187;DHT22;18686;53.084;8.872;2023-10-09T04:47:26;12.30;99.90
32187;DHT22;18686;53.084;8.872;2023-10-09T04:50:05;12.30;99.90
32187;DHT22;18686;53.084;8.872;2023-10-09T04:52:36;12.30;99.90
32187;DHT22;18686;53.084;8.872;2023-10-09T04:55:21;12.30;99.90
32187;DHT22;18686;53.084;8.872;2023-10-09T04:57:52;12.30;99.90
32187;DHT22;18686;53.084;8.872;2023-10-09T05:00:37;12.30;99.90
32187;DHT22;18686;53.084;8.872;2023-10-09T05:03:31;12.30;99.90
32187;DHT22;18686;53.084;8.872;2023-10-09T05:06:12;12.30;99.90
32187;DHT22;18686;53.084;8.872;2023-10-09T05:09:00;12.30;99.90
32187;DHT22;18686;53.084;8.872;2023-10-09T05:11:36;12.30;99.90
32187;DHT22;18686;53.084;8.872;2023-10-09T05:14:19;12.20;99.90
32187;DHT22;18686;53.084;8.872;2023-10-09T05:16:55;12.20;99.90
32187;DHT22;18686;53.084;8.872;2023-10-09T05:19:28;12.30;99.90
32187;DHT22;18686;53.084;8.872;2023-10-09T05:22:15;12.30;99.90
32187;DHT22;18686;53.084;8.872;2023-10-09T05:24:57;12.30;99.90
32187;DHT22;18686;53.084;8.872;2023-10-09T05:27:26;12.30;99.90
32187;DHT22;18686;53.084;8.872;2023-10-09T05:30:09;12.30;99.90
32187;DHT22;18686;53.084;8.872;2023-10-09T05:32:54;12.30;99.90
32187;DHT22;18686;53.084;8.872;2023-10-09T05:35:52;12.30;99.90
32187;DHT22;18686;53.084;8.872;2023-10-09T05:38:33;12.30;99.90
32187;DHT22;18686;53.084;8.872;2023-10-09T05:41:13;12.40;99.90
32187;DHT22;18686;53.084;8.872;2023-10-09T05:44:14;12.30;99.90
32187;DHT22;18686;53.084;8.872;2023-10-09T05:47:11;12.40;99.90
32187;DHT22;18686;53.084;8.872;2023-10-09T05:49:59;12.40;99.90
32187;DHT22;18686;53.084;8.872;2023-10-09T05:52:50;12.40;99.90
32187;DHT22;18686;53.084;8.872;2023-10-09T05:55:32;12.40;99.90
32187;DHT22;18686;53.084;8.872;2023-10-09T05:58:18;12.40;99.90
32187;DHT22;18686;53.084;8.872;2023-10-09T06:01:03;12.40;99.90
32187;DHT22;18686;53.084;8.872;2023-10-09T06:03:49;12.40;99.90
32187;DHT22;18686;53.084;8.872;2023-10-09T06:06:23;12.40;99.90
32187;DHT22;18686;53.084;8.872;2023-10-09T06:09:06;12.50;99.90
32187;DHT22;18686;53.084;8.872;2023-10-09T06:11:51;12.50;99.90
32187;DHT22;18686;53.084;8.872;2023-10-09T06:14:43;12.50;99.90
32187;DHT22;18686;53.084;8.872;2023-10-09T06:17:16;12.50;99.90
32187;DHT22;18686;53.084;8.872;2023-10-09T06:19:51;12.60;99.90
32187;DHT22;18686;53.084;8.872;2023-10-09T06:22:27;12.60;99.90
32187;DHT22;18686;53.084;8.872;2023-10-09T06:25:21;12.70;99.90
32187;DHT22;18686;53.084;8.872;2023-10-09T06:27:54;12.70;99.90
32187;DHT22;18686;53.084;8.872;2023-10-09T06:30:25;12.70;99.90
32187;DHT22;18686;53.084;8.872;2023-10-09T06:32:55;12.80;99.90
32187;DHT22;18686;53.084;8.872;2023-10-09T06:35:34;12.80;99.90
32187;DHT22;18686;53.084;8.872;2023-10-09T06:38:04;12.90;99.90
32187;DHT22;18686;53.084;8.872;2023-10-09T06:40:51;12.90;99.90
32187;DHT22;18686;53.084;8.872;2023-10-09T06:43:37;12.90;99.90
32187;DHT22;18686;53.084;8.872;2023-10-09T06:46:15;13.00;99.90
32187;DHT22;18686;53.084;8.872;2023-10-09T06:49:01;13.00;99.90
32187;DHT22;18686;53.084;8.872;2023-10-09T06:51:49;13.00;99.90
32187;DHT22;18686;53.084;8.872;2023-10-09T06:54:24;13.00;99.90
32187;DHT22;18686;53.084;8.872;2023-10-09T06:56:56;13.10;99.90
32187;DHT22;18686;53.084;8.872;2023-10-09T06:59:40;13.10;99.90
32187;DHT22;18686;53.084;8.872;2023-10-09T07:02:32;13.10;99.90
32187;DHT22;18686;53.084;8.872;2023-10-09T07:05:13;13.20;99.90
32187;DHT22;18686;53.084;8.872;2023-10-09T07:07:44;13.20;99.90
32187;DHT22;18686;53.084;8.872;2023-10-09T07:10:24;13.30;99.90
32187;DHT22;18686;53.084;8.872;2023-10-09T07:13:00;13.30;99.90
32187;DHT22;18686;53.084;8.872;2023-10-09T07:15:30;13.30;99.90
32187;DHT22;18686;53.084;8.872;2023-10-09T07:18:21;13.40;99.90
32187;DHT22;18686;53.084;8.872;2023-10-09T07:21:07;13.50;99.90
32187;DHT22;18686;53.084;8.872;2023-10-09T07:23:44;13.50;99.90
32187;DHT22;18686;53.084;8.872;2023-10-09T07:26:17;13.60;99.90
32187;DHT22;18686;53.084;8.872;2023-10-09T07:28:50;13.60;99.90
32187;DHT22;18686;53.084;8.872;2023-10-09T07:31:28;13.60;99.90
32187;DHT22;18686;53.084;8.872;2023-10-09T07:34:06;13.70;99.90
32187;DHT22;18686;53.084;8.872;2023-10-09T07:36:56;13.70;99.90
32187;DHT22;18686;53.084;8.872;2023-10-09T07:39:31;13.80;99.90
32187;DHT22;18686;53.084;8.872;2023-10-09T07:42:06;13.80;99.90
32187;DHT22;18686;53.084;8.872;2023-10-09T07:44:56;13.80;99.90
32187;DHT22;18686;53.084;8.872;2023-10-09T07:47:25;13.90;99.90
32187;DHT22;18686;53.084;8.872;2023-10-09T07:50:07;14.00;99.90
32187;DHT22;18686;53.084;8.872;2023-10-09T07:52:38;14.00;99.90
32187;DHT22;18686;53.084;8.872;2023-10-09T07:55:10;14.00;99.90
32187;DHT22;18686;53.084;8.872;2023-10-09T07:57:54;14.10;99.90
32187;DHT22;18686;53.084;8.872;2023-10-09T08:00:23;14.20;99.90
32187;DHT22;18686;53.084;8.872;2023-10-09T08:03:04;14.20;99.90
32187;DHT22;18686;53.084;8.872;2023-10-09T08:05:51;14.20;99.90
32187;DHT22;18686;53.084;8.872;2023-10-09T08:08:34;14.30;99.90
32187;DHT22;18686;53.084;8.872;2023-10-09T08:11:28;14.30;99.90
32187;DHT22;18686;53.084;8.872;2023-10-09T08:14:15;14.30;99.90
32187;DHT22;18686;53.084;8.872;2023-10-09T08:17:09;14.30;99.90
32187;DHT22;18686;53.084;8.872;2023-10-09T08:19:45;14.30;99.90
32187;DHT22;18686;53.084;8.872;2023-10-09T08:22:26;14.40;99.90
32187;DHT22;18686;53.084;8.872;2023-10-09T08:25:19;14.40;99.90
32187;DHT22;18686;53.084;8.872;2023-10-09T08:28:00;14.40;99.90
32187;DHT22;18686;53.084;8.872;2023-10-09T08:30:43;14.50;99.90
32187;DHT22;18686;53.084;8.872;2023-10-09T08:33:30;14.40;99.90
32187;DHT22;18686;53.084;8.872;2023-10-09T08:36:13;14.50;99.90
32187;DHT22;18686;53.084;8.872;2023-10-09T08:38:50;14.50;99.90
32187;DHT22;18686;53.084;8.872;2023-10-09T08:41:19;14.50;99.90
32187;DHT22;18686;53.084;8.872;2023-10-09T08:43:51;14.50;99.90
32187;DHT22;18686;53.084;8.872;2023-10-09T08:46:23;14.50;99.90
32187;DHT22;18686;53.084;8.872;2023-10-09T08:48:54;14.50;99.90
32187;DHT22;18686;53.084;8.872;2023-10-09T08:51:24;14.50;99.90
32187;DHT22;18686;53.084;8.872;2023-10-09T08:53:53;14.60;99.90
32187;DHT22;18686;53.084;8.872;2023-10-09T08:56:22;14.60;99.90
32187;DHT22;18686;53.084;8.872;2023-10-09T08:58:51;14.60;99.90
32187;DHT22;18686;53.084;8.872;2023-10-09T09:01:23;14.60;99.90
32187;DHT22;18686;53.084;8.872;2023-10-09T09:03:53;14.60;99.90
32187;DHT22;18686;53.084;8.872;2023-10-09T09:06:23;14.70;99.90
32187;DHT22;18686;53.084;8.872;2023-10-09T09:08:52;14.70;99.90
32187;DHT22;18686;53.084;8.872;2023-10-09T09:11:26;14.70;99.90
32187;DHT22;18686;53.084;8.872;2023-10-09T09:14:03;14.70;99.90
32187;DHT22;18686;53.084;8.872;2023-10-09T09:16:35;14.80;99.90
32187;DHT22;18686;53.084;8.872;2023-10-09T09:19:05;14.80;99.90
32187;DHT22;18686;53.084;8.872;2023-10-09T09:21:48;14.80;99.90
32187;DHT22;18686;53.084;8.872;2023-10-09T09:24:22;14.80;99.90
32187;DHT22;18686;53.084;8.872;2023-10-09T09:27:01;14.90;99.90
32187;DHT22;18686;53.084;8.872;2023-10-09T09:29:41;15.00;99.90
32187;DHT22;18686;53.084;8.872;2023-10-09T09:32:16;15.00;99.90
32187;DHT22;18686;53.084;8.872;2023-10-09T09:34:46;15.00;99.90
32187;DHT22;18686;53.084;8.872;2023-10-09T09:37:22;15.10;99.90
32187;DHT22;18686;53.084;8.872;2023-10-09T09:39:57;15.10;99.90
32187;DHT22;18686;53.084;8.872;2023-10-09T09:42:27;15.10;99.90
32187;DHT22;18686;53.084;8.872;2023-10-09T09:45:01;15.20;99.90
32187;DHT22;18686;53.084;8.872;2023-10-09T09:47:31;15.20;99.90
32187;DHT22;18686;53.084;8.872;2023-10-09T09:50:06;15.20;99.90
32187;DHT22;18686;53.084;8.872;2023-10-09T09:52:40;15.30;99.90
32187;DHT22;18686;53.084;8.872;2023-10-09T09:55:10;15.30;99.90
32187;DHT22;18686;53.084;8.872;2023-10-09T09:57:43;15.40;99.90
32187;DHT22;18686;53.084;8.872;2023-10-09T10:00:13;15.40;99.90
32187;DHT22;18686;53.084;8.872;2023-10-09T10:03:03;15.40;99.90
32187;DHT22;18686;53.084;8.872;2023-10-09T10:05:34;15.40;99.90
32187;DHT22;18686;53.084;8.872;2023-10-09T10:08:04;15.40;99.90
32187;DHT22;18686;53.084;8.872;2023-10-09T10:10:39;15.40;99.90
32187;DHT22;18686;53.084;8.872;2023-10-09T10:13:17;15.40;99.90
32187;DHT22;18686;53.084;8.872;2023-10-09T10:15:59;15.40;99.90
32187;DHT22;18686;53.084;8.872;2023-10-09T10:18:33;15.40;99.90
32187;DHT22;18686;53.084;8.872;2023-10-09T10:21:12;15.40;99.90
32187;DHT22;18686;53.084;8.872;2023-10-09T10:23:44;15.50;99.90
32187;DHT22;18686;53.084;8.872;2023-10-09T10:26:19;15.50;99.90
32187;DHT22;18686;53.084;8.872;2023-10-09T10:29:15;15.60;99.90
32187;DHT22;18686;53.084;8.872;2023-10-09T10:31:57;15.60;99.90
32187;DHT22;18686;53.084;8.872;2023-10-09T10:34:53;15.60;99.90
32187;DHT22;18686;53.084;8.872;2023-10-09T10:37:38;15.60;99.90
32187;DHT22;18686;53.084;8.872;2023-10-09T10:40:11;15.60;99.90
32187;DHT22;18686;53.084;8.872;2023-10-09T10:43:01;15.60;99.90
32187;DHT22;18686;53.084;8.872;2023-10-09T10:45:36;15.60;99.90
32187;DHT22;18686;53.084;8.872;2023-10-09T10:48:05;15.70;99.90
32187;DHT22;18686;53.084;8.872;2023-10-09T10:50:37;15.70;99.90
32187;DHT22;18686;53.084;8.872;2023-10-09T10:53:11;15.70;99.90
32187;DHT22;18686;53.084;8.872;2023-10-09T10:55:57;15.80;99.90
32187;DHT22;18686;53.084;8.872;2023-10-09T10:58:25;15.80;99.90
32187;DHT22;18686;53.084;8.872;2023-10-09T11:01:02;15.80;99.90
32187;DHT22;18686;53.084;8.872;2023-10-09T11:03:40;15.80;99.90
32187;DHT22;18686;53.084;8.872;2023-10-09T11:06:28;15.80;99.90
32187;DHT22;18686;53.084;8.872;2023-10-09T11:09:09;15.80;99.90
32187;DHT22;18686;53.084;8.872;2023-10-09T11:11:49;15.80;99.90
32187;DHT22;18686;53.084;8.872;2023-10-09T11:14:22;15.80;99.90
32187;DHT22;18686;53.084;8.872;2023-10-09T11:16:51;15.90;99.90
32187;DHT22;18686;53.084;8.872;2023-10-09T11:19:25;16.00;99.90
32187;DHT22;18686;53.084;8.872;2023-10-09T11:22:01;16.10;99.90
32187;DHT22;18686;53.084;8.872;2023-10-09T11:24:49;16.10;99.90
32187;DHT22;18686;53.084;8.872;2023-10-09T11:27:37;16.20;99.90
32187;DHT22;18686;53.084;8.872;2023-10-09T11:30:08;16.20;99.90
32187;DHT22;18686;53.084;8.872;2023-10-09T11:32:48;16.20;99.90
32187;DHT22;18686;53.084;8.872;2023-10-09T11:35:17;16.20;99.90
32187;DHT22;18686;53.084;8.872;2023-10-09T11:37:58;16.20;99.90
32187;DHT22;18686;53.084;8.872;2023-10-09T11:40:29;16.30;99.90
32187;DHT22;18686;53.084;8.872;2023-10-09T11:43:14;16.40;99.90
32187;DHT22;18686;53.084;8.872;2023-10-09T11:45:42;16.60;99.90
32187;DHT22;18686;53.084;8.872;2023-10-09T11:48:22;16.70;99.90
32187;DHT22;18686;53.084;8.872;2023-10-09T11:50:52;16.80;99.90
32187;DHT22;18686;53.084;8.872;2023-10-09T11:53:23;16.80;99.90
32187;DHT22;18686;53.084;8.872;2023-10-09T11:56:03;16.80;99.90
32187;DHT22;18686;53.084;8.872;2023-10-09T11:58:30;16.70;99.90
32187;DHT22;18686;53.084;8.872;2023-10-09T12:00:59;16.70;99.90
32187;DHT22;18686;53.084;8.872;2023-10-09T12:03:32;16.70;99.90
32187;DHT22;18686;53.084;8.872;2023-10-09T12:06:02;16.60;99.90
32187;DHT22;18686;53.084;8.872;2023-10-09T12:08:34;16.60;99.90
32187;DHT22;18686;53.084;8.872;2023-10-09T12:11:05;16.50;99.90
32187;DHT22;18686;53.084;8.872;2023-10-09T12:13:36;16.50;99.90
32187;DHT22;18686;53.084;8.872;2023-10-09T12:16:05;16.50;99.90
32187;DHT22;18686;53.084;8.872;2023-10-09T12:18:37;16.50;99.90
32187;DHT22;18686;53.084;8.872;2023-10-09T12:21:06;16.60;99.90
32187;DHT22;18686;53.084;8.872;2023-10-09T12:23:36;16.60;99.90
32187;DHT22;18686;53.084;8.872;2023-10-09T12:26:05;16.80;99.90
32187;DHT22;18686;53.084;8.872;2023-10-09T12:28:41;16.90;99.90
32187;DHT22;18686;53.084;8.872;2023-10-09T12:31:13;17.00;99.90
32187;DHT22;18686;53.084;8.872;2023-10-09T12:33:42;17.00;99.90
32187;DHT22;18686;53.084;8.872;2023-10-09T12:36:11;17.10;99.90
32187;DHT22;18686;53.084;8.872;2023-10-09T12:38:46;17.40;99.90
32187;DHT22;18686;53.084;8.872;2023-10-09T12:41:17;17.50;99.90
32187;DHT22;18686;53.084;8.872;2023-10-09T12:43:53;17.60;99.90
32187;DHT22;18686;53.084;8.872;2023-10-09T12:46:22;17.70;99.90
32187;DHT22;18686;53.084;8.872;2023-10-09T12:48:52;17.90;99.90
32187;DHT22;18686;53.084;8.872;2023-10-09T12:51:22;18.20;99.90
32187;DHT22;18686;53.084;8.872;2023-10-09T12:53:58;18.50;99.90
32187;DHT22;18686;53.084;8.872;2023-10-09T12:56:28;18.90;99.90
32187;DHT22;18686;53.084;8.872;2023-10-09T12:59:05;19.10;99.90
32187;DHT22;18686;53.084;8.872;2023-10-09T13:01:34;19.10;99.90
32187;DHT22;18686;53.084;8.872;2023-10-09T13:04:10;19.10;99.90
32187;DHT22;18686;53.084;8.872;2023-10-09T13:06:40;19.20;99.90
32187;DHT22;18686;53.084;8.872;2023-10-09T13:09:13;19.20;99.90
32187;DHT22;18686;53.084;8.872;2023-10-09T13:11:42;19.10;99.90
32187;DHT22;18686;53.084;8.872;2023-10-09T13:14:11;18.90;99.90
32187;DHT22;18686;53.084;8.872;2023-10-09T13:16:44;18.70;99.90
32187;DHT22;18686;53.084;8.872;2023-10-09T13:19:14;18.40;99.90
32187;DHT22;18686;53.084;8.872;2023-10-09T13:21:43;18.30;99.90
32187;DHT22;18686;53.084;8.872;2023-10-09T13:24:12;18.10;99.90
32187;DHT22;18686;53.084;8.872;2023-10-09T13:26:43;17.80;99.90
32187;DHT22;18686;53.084;8.872;2023-10-09T13:29:13;17.70;99.90
32187;DHT22;18686;53.084;8.872;2023-10-09T13:31:49;17.70;99.90
32187;DHT22;18686;53.084;8.872;2023-10-09T13:34:19;17.70;99.90
32187;DHT22;18686;53.084;8.872;2023-10-09T13:36:47;18.10;99.90
32187;DHT22;18686;53.084;8.872;2023-10-09T13:39:22;18.50;99.90
32187;DHT22;18686;53.084;8.872;2023-10-09T13:41:52;18.70;99.90
32187;DHT22;18686;53.084;8.872;2023-10-09T13:44:25;18.70;99.90
32187;DHT22;18686;53.084;8.872;2023-10-09T13:46:57;18.60;99.90
32187;DHT22;18686;53.084;8.872;2023-10-09T13:49:27;18.50;99.90
32187;DHT22;18686;53.084;8.872;2023-10-09T13:51:58;18.30;99.90
32187;DHT22;18686;53.084;8.872;2023-10-09T13:54:30;18.30;99.90
32187;DHT22;18686;53.084;8.872;2023-10-09T13:57:07;18.20;99.90
32187;DHT22;18686;53.084;8.872;2023-10-09T13:59:38;18.00;99.90
32187;DHT22;18686;53.084;8.872;2023-10-09T14:02:10;17.80;99.90
32187;DHT22;18686;53.084;8.872;2023-10-09T14:04:45;17.60;99.90
32187;DHT22;18686;53.084;8.872;2023-10-09T14:07:15;17.40;99.90
32187;DHT22;18686;53.084;8.872;2023-10-09T14:09:46;17.20;99.90
32187;DHT22;18686;53.084;8.872;2023-10-09T14:12:23;17.10;99.90
32187;DHT22;18686;53.084;8.872;2023-10-09T14:14:52;16.90;99.90
32187;DHT22;18686;53.084;8.872;2023-10-09T14:17:23;16.80;99.90
32187;DHT22;18686;53.084;8.872;2023-10-09T14:19:56;16.80;99.90
32187;DHT22;18686;53.084;8.872;2023-10-09T14:22:44;16.70;99.90
32187;DHT22;18686;53.084;8.872;2023-10-09T14:25:20;16.60;99.90
32187;DHT22;18686;53.084;8.872;2023-10-09T14:27:48;16.60;99.90
32187;DHT22;18686;53.084;8.872;2023-10-09T14:30:20;16.60;99.90
32187;DHT22;18686;53.084;8.872;2023-10-09T14:32:57;16.60;99.90
32187;DHT22;18686;53.084;8.872;2023-10-09T14:35:32;16.70;99.90
32187;DHT22;18686;53.084;8.872;2023-10-09T14:38:00;16.70;99.90
32187;DHT22;18686;53.084;8.872;2023-10-09T14:40:33;16.80;99.90
32187;DHT22;18686;53.084;8.872;2023-10-09T14:43:01;16.90;99.90
32187;DHT22;18686;53.084;8.872;2023-10-09T14:45:30;16.90;99.90
32187;DHT22;18686;53.084;8.872;2023-10-09T14:47:58;17.00;99.90
32187;DHT22;18686;53.084;8.872;2023-10-09T14:50:27;17.00;99.90
32187;DHT22;18686;53.084;8.872;2023-10-09T14:52:55;17.00;99.90
32187;DHT22;18686;53.084;8.872;2023-10-09T14:55:24;16.90;99.90
32187;DHT22;18686;53.084;8.872;2023-10-09T14:57:58;16.90;99.90
32187;DHT22;18686;53.084;8.872;2023-10-09T15:00:26;16.80;99.90
32187;DHT22;18686;53.084;8.872;2023-10-09T15:03:00;16.80;99.90
32187;DHT22;18686;53.084;8.872;2023-10-09T15:05:34;16.70;99.90
32187;DHT22;18686;53.084;8.872;2023-10-09T15:08:02;16.60;99.90
32187;DHT22;18686;53.084;8.872;2023-10-09T15:10:31;16.50;99.90
32187;DHT22;18686;53.084;8.872;2023-10-09T15:13:00;16.50;99.90
32187;DHT22;18686;53.084;8.872;2023-10-09T15:15:31;16.40;99.90
32187;DHT22;18686;53.084;8.872;2023-10-09T15:17:59;16.40;99.90
32187;DHT22;18686;53.084;8.872;2023-10-09T15:20:30;16.30;99.90
32187;DHT22;18686;53.084;8.872;2023-10-09T15:22:58;16.30;99.90
32187;DHT22;18686;53.084;8.872;2023-10-09T15:25:28;16.40;99.90
32187;DHT22;18686;53.084;8.872;2023-10-09T15:27:56;16.30;99.90
32187;DHT22;18686;53.084;8.872;2023-10-09T15:30:26;16.40;99.90
32187;DHT22;18686;53.084;8.872;2023-10-09T15:32:55;16.30;99.90
32187;DHT22;18686;53.084;8.872;2023-10-09T15:35:24;16.40;99.90
32187;DHT22;18686;53.084;8.872;2023-10-09T15:37:52;16.40;99.90
32187;DHT22;18686;53.084;8.872;2023-10-09T15:40:21;16.30;99.90
32187;DHT22;18686;53.084;8.872;2023-10-09T15:42:51;16.30;99.90
32187;DHT22;18686;53.084;8.872;2023-10-09T15:45:23;16.30;99.90
32187;DHT22;18686;53.084;8.872;2023-10-09T15:47:56;16.30;99.90
32187;DHT22;18686;53.084;8.872;2023-10-09T15:50:26;16.30;99.90
32187;DHT22;18686;53.084;8.872;2023-10-09T15:52:54;16.20;99.90
32187;DHT22;18686;53.084;8.872;2023-10-09T15:55:23;16.20;99.90
32187;DHT22;18686;53.084;8.872;2023-10-09T15:57:52;16.20;99.90
32187;DHT22;18686;53.084;8.872;2023-10-09T16:00:22;16.10;99.90
32187;DHT22;18686;53.084;8.872;2023-10-09T16:02:57;16.10;99.90
32187;DHT22;18686;53.084;8.872;2023-10-09T16:05:28;16.00;99.90
32187;DHT22;18686;53.084;8.872;2023-10-09T16:07:58;16.00;99.90
32187;DHT22;18686;53.084;8.872;2023-10-09T16:10:27;16.00;99.90
32187;DHT22;18686;53.084;8.872;2023-10-09T16:12:55;16.00;99.90
32187;DHT22;18686;53.084;8.872;2023-10-09T16:15:25;15.90;99.90
32187;DHT22;18686;53.084;8.872;2023-10-09T16:17:54;15.90;99.90
32187;DHT22;18686;53.084;8.872;2023-10-09T16:20:31;15.90;99.90